Terminal Aerodrome Forecast
Issued by NWS

Home | Current Version | Previous Version | Text Only | Print | Product List | Glossary On
Versions: 1 2 3 4 5 6 7 8 9 10 11 12 13 14 15 16 17 18 19 20 21 22 23 24
000
FTUS41 KOKX 181724
TAFHPN
TAF
KHPN 181724Z 1818/1918 30009KT P6SM SKC
     FM182000 27011G19KT P6SM SCT070
     FM182300 33011G20KT P6SM SKC
     FM190500 01008KT P6SM SKC
     FM191500 07011KT P6SM FEW040
      AMD NOT SKED=

USA.gov is the U.S. government's official web portal to all federal, state and local government web resources and services.